createdAt,value
2018-09-05T00:00:56.510Z,17.40
2018-09-05T00:05:59.710Z,17.50
2018-09-05T00:11:02.943Z,17.30
2018-09-05T00:16:06.139Z,17.30
2018-09-05T00:21:09.348Z,17.20
2018-09-05T00:26:12.553Z,17.20
2018-09-05T00:31:15.805Z,17.10
2018-09-05T00:36:19.068Z,16.90
2018-09-05T00:41:22.254Z,17.00
2018-09-05T00:46:25.457Z,17.20
2018-09-05T00:51:28.670Z,17.20
2018-09-05T00:56:31.880Z,17.10
2018-09-05T01:01:35.083Z,17.00
2018-09-05T01:06:38.291Z,17.10
2018-09-05T01:11:41.502Z,17.00
2018-09-05T01:16:44.679Z,16.90
2018-09-05T01:21:47.871Z,16.70
2018-09-05T01:26:51.077Z,16.40
2018-09-05T01:31:54.254Z,16.30
2018-09-05T01:36:57.467Z,16.40
2018-09-05T01:42:00.667Z,16.50
2018-09-05T01:47:03.882Z,16.40
2018-09-05T01:52:07.114Z,16.30
2018-09-05T01:57:10.370Z,16.20
2018-09-05T02:02:14.006Z,16.30
2018-09-05T02:07:17.350Z,16.40
2018-09-05T02:12:20.572Z,16.40
2018-09-05T02:17:23.835Z,16.50
2018-09-05T02:22:27.034Z,16.60
2018-09-05T02:27:30.217Z,16.40
2018-09-05T02:32:33.421Z,16.20
2018-09-05T02:37:36.610Z,16.10
2018-09-05T02:42:39.810Z,16.10
2018-09-05T02:47:42.986Z,16.00
2018-09-05T02:52:46.178Z,15.90
2018-09-05T02:57:49.451Z,15.90
2018-09-05T03:02:52.695Z,16.00
2018-09-05T03:07:55.950Z,16.10
2018-09-05T03:12:59.194Z,16.10
2018-09-05T03:18:02.410Z,15.90
2018-09-05T03:23:05.651Z,15.80
2018-09-05T03:28:09.535Z,15.70
2018-09-05T03:33:12.757Z,15.60
2018-09-05T03:38:15.989Z,15.60
2018-09-05T03:43:19.248Z,15.50
2018-09-05T03:48:22.471Z,15.30
2018-09-05T03:53:26.846Z,15.20
2018-09-05T03:58:36.778Z,15.10
2018-09-05T04:03:40.350Z,15.00
2018-09-05T04:08:43.559Z,14.90
2018-09-05T04:13:47.332Z,14.80
2018-09-05T04:18:51.956Z,14.80
2018-09-05T04:23:55.239Z,14.90
2018-09-05T04:28:58.474Z,14.80
2018-09-05T04:34:01.707Z,14.80
2018-09-05T04:39:07.822Z,14.80
2018-09-05T04:44:11.078Z,14.80
2018-09-05T04:49:44.220Z,14.70
2018-09-05T04:54:47.451Z,14.60
2018-09-05T04:59:50.932Z,14.60
2018-09-05T05:04:54.573Z,14.70
2018-09-05T05:09:57.823Z,14.60
2018-09-05T05:15:01.056Z,14.90
2018-09-05T05:20:04.340Z,15.40
2018-09-05T05:25:07.643Z,15.90
2018-09-05T05:30:10.892Z,16.80
2018-09-05T05:35:14.503Z,17.50
2018-09-05T05:40:17.836Z,18.20
2018-09-05T05:45:21.067Z,19.30
2018-09-05T05:50:24.290Z,20.10
2018-09-05T05:55:27.845Z,20.80
2018-09-05T06:00:31.056Z,21.30
2018-09-05T06:05:34.264Z,21.70
2018-09-05T06:10:37.484Z,22.00
2018-09-05T06:15:40.759Z,22.60
2018-09-05T06:20:43.946Z,23.50
2018-09-05T06:25:47.174Z,24.00
2018-09-05T06:30:50.639Z,24.90
2018-09-05T06:35:53.939Z,24.90
2018-09-05T06:40:57.115Z,25.30
2018-09-05T06:46:00.316Z,25.40
2018-09-05T06:51:06.326Z,24.60
2018-09-05T06:56:09.511Z,23.90
2018-09-05T07:01:12.709Z,23.50
2018-09-05T07:06:15.912Z,23.00
2018-09-05T07:11:19.198Z,24.00
2018-09-05T07:16:22.495Z,24.50
2018-09-05T07:21:25.824Z,24.60
2018-09-05T07:26:28.992Z,24.30
2018-09-05T07:31:32.224Z,24.30
2018-09-05T07:36:35.410Z,24.20
2018-09-05T07:41:39.599Z,24.70
2018-09-05T07:46:42.792Z,24.60
2018-09-05T07:51:45.994Z,24.50
2018-09-05T07:56:49.233Z,24.40
2018-09-05T08:01:52.423Z,25.90
2018-09-05T08:06:55.615Z,26.70
2018-09-05T08:11:58.824Z,27.90
2018-09-05T08:17:02.555Z,28.20
2018-09-05T08:22:05.792Z,28.70
2018-09-05T08:27:08.981Z,29.40
2018-09-05T08:32:12.166Z,30.40
2018-09-05T08:37:15.657Z,29.60
2018-09-05T08:42:18.845Z,28.40
2018-09-05T08:47:22.148Z,28.90
2018-09-05T08:52:25.279Z,29.50
2018-09-05T08:57:28.486Z,29.00
2018-09-05T09:02:31.680Z,29.70
2018-09-05T09:07:34.920Z,28.90
2018-09-05T09:12:38.102Z,28.50
2018-09-05T09:17:41.700Z,29.50
2018-09-05T09:22:44.891Z,28.50
2018-09-05T09:27:48.123Z,28.90
2018-09-05T09:32:51.312Z,28.40
2018-09-05T09:37:54.639Z,28.30
2018-09-05T09:42:57.806Z,29.00
2018-09-05T09:48:02.015Z,28.50
2018-09-05T09:53:05.218Z,29.30
2018-09-05T09:58:08.459Z,29.00
2018-09-05T10:03:17.224Z,28.40
2018-09-05T10:08:25.807Z,28.20
2018-09-05T10:13:34.597Z,27.50
2018-09-05T10:18:39.863Z,28.40
2018-09-05T10:23:43.070Z,28.50
2018-09-05T10:28:46.354Z,28.20
2018-09-05T10:33:49.585Z,27.80
2018-09-05T10:38:52.821Z,28.00
2018-09-05T10:43:56.031Z,28.20
2018-09-05T10:48:59.260Z,28.40
2018-09-05T10:54:02.507Z,27.70
2018-09-05T10:59:05.743Z,28.20
2018-09-05T11:04:08.995Z,28.70
2018-09-05T11:09:12.656Z,28.70
2018-09-05T11:14:15.874Z,29.00
2018-09-05T11:19:19.099Z,30.00
2018-09-05T11:24:22.363Z,30.00
2018-09-05T11:29:25.587Z,29.10
2018-09-05T11:34:28.818Z,28.90
2018-09-05T11:39:32.170Z,27.90
2018-09-05T11:44:36.223Z,27.30
2018-09-05T11:49:39.502Z,27.40
2018-09-05T11:54:42.731Z,26.90
2018-09-05T11:59:45.941Z,26.30
2018-09-05T12:04:49.287Z,26.30
2018-09-05T12:09:52.516Z,26.60
2018-09-05T12:14:55.744Z,27.10
2018-09-05T12:19:58.979Z,26.90
2018-09-05T12:25:02.475Z,26.70
2018-09-05T12:30:05.701Z,27.00
2018-09-05T12:35:08.940Z,26.80
2018-09-05T12:40:12.539Z,26.80
2018-09-05T12:45:15.760Z,26.60
2018-09-05T12:50:18.982Z,26.60
2018-09-05T12:55:22.251Z,26.50
2018-09-05T13:00:25.595Z,26.50
2018-09-05T13:05:28.884Z,26.30
2018-09-05T13:10:32.364Z,26.70
2018-09-05T13:15:35.583Z,26.70
2018-09-05T13:20:38.979Z,27.10
2018-09-05T13:25:42.227Z,27.30
2018-09-05T13:30:45.720Z,27.90
2018-09-05T13:35:48.958Z,28.30
2018-09-05T13:40:52.190Z,27.90
2018-09-05T13:45:55.418Z,26.80
2018-09-05T13:50:58.657Z,27.20
2018-09-05T13:56:02.315Z,27.50
2018-09-05T14:01:06.585Z,27.90
2018-09-05T14:06:09.798Z,28.10
2018-09-05T14:11:13.019Z,27.60
2018-09-05T14:16:16.263Z,27.30
2018-09-05T14:21:19.487Z,27.10
2018-09-05T14:26:23.056Z,26.90
2018-09-05T14:31:26.288Z,26.90
2018-09-05T14:36:29.537Z,26.70
2018-09-05T14:41:32.718Z,26.60
2018-09-05T14:46:36.183Z,26.70
2018-09-05T14:51:39.399Z,26.50
2018-09-05T14:56:42.731Z,26.60
2018-09-05T15:01:46.018Z,26.80
2018-09-05T15:06:49.237Z,26.90
2018-09-05T15:11:52.571Z,27.10
2018-09-05T15:16:55.786Z,27.10
2018-09-05T15:21:59.055Z,27.10
2018-09-05T15:27:03.102Z,26.90
2018-09-05T15:32:06.378Z,27.00
2018-09-05T15:37:09.617Z,26.80
2018-09-05T15:42:13.514Z,26.70
2018-09-05T15:47:16.792Z,26.80
2018-09-05T15:52:19.995Z,26.70
2018-09-05T15:57:23.245Z,26.70
2018-09-05T16:02:26.403Z,26.40
2018-09-05T16:07:29.611Z,26.60
2018-09-05T16:12:32.781Z,26.70
2018-09-05T16:17:36.244Z,26.70
2018-09-05T16:22:39.455Z,26.50
2018-09-05T16:27:42.639Z,26.50
2018-09-05T16:32:45.870Z,26.50
2018-09-05T16:37:49.055Z,26.20
2018-09-05T16:42:52.847Z,26.10
2018-09-05T16:47:56.023Z,26.00
2018-09-05T16:52:59.231Z,25.90
2018-09-05T16:58:02.520Z,25.80
2018-09-05T17:03:05.760Z,25.70
2018-09-05T17:08:09.007Z,25.60
2018-09-05T17:13:12.218Z,25.30
2018-09-05T17:18:15.422Z,25.20
2018-09-05T17:23:18.682Z,25.00
2018-09-05T17:28:21.926Z,24.80
2018-09-05T17:33:25.156Z,24.60
2018-09-05T17:38:28.492Z,24.50
2018-09-05T17:43:32.754Z,24.20
2018-09-05T17:48:36.523Z,24.00
2018-09-05T17:53:39.806Z,24.00
2018-09-05T17:58:42.955Z,23.80
2018-09-05T18:03:46.244Z,23.60
2018-09-05T18:08:49.484Z,23.50
2018-09-05T18:13:53.723Z,23.40
2018-09-05T18:18:57.151Z,23.20
2018-09-05T18:24:00.370Z,23.10
2018-09-05T18:29:03.620Z,23.00
2018-09-05T18:34:06.854Z,22.80
2018-09-05T18:39:10.884Z,22.70
2018-09-05T18:44:14.096Z,22.60
2018-09-05T18:49:17.425Z,22.60
2018-09-05T18:54:20.592Z,22.60
2018-09-05T18:59:23.821Z,22.60
2018-09-05T19:04:27.030Z,22.40
2018-09-05T19:09:30.270Z,22.20
2018-09-05T19:14:33.444Z,22.00
2018-09-05T19:19:36.696Z,21.90
2018-09-05T19:24:39.910Z,21.90
2018-09-05T19:29:43.123Z,22.00
2018-09-05T19:34:46.358Z,21.80
2018-09-05T19:39:49.591Z,21.80
2018-09-05T19:44:52.820Z,21.70
2018-09-05T19:49:56.239Z,21.70
2018-09-05T19:54:59.482Z,21.70
2018-09-05T20:00:02.723Z,21.60
2018-09-05T20:05:06.028Z,21.40
2018-09-05T20:10:09.480Z,21.30
2018-09-05T20:15:12.746Z,21.20
2018-09-05T20:20:15.935Z,21.00
2018-09-05T20:25:19.678Z,21.00
2018-09-05T20:30:22.975Z,20.90
2018-09-05T20:35:26.199Z,20.70
2018-09-05T20:40:29.431Z,20.50
2018-09-05T20:45:32.683Z,20.50
2018-09-05T20:50:35.883Z,20.50
2018-09-05T20:55:39.079Z,20.40
2018-09-05T21:00:42.263Z,20.20
2018-09-05T21:05:45.438Z,20.20
2018-09-05T21:10:48.667Z,20.10
2018-09-05T21:15:51.895Z,20.10
2018-09-05T21:20:58.464Z,20.20
2018-09-05T21:26:01.652Z,20.10
2018-09-05T21:31:05.020Z,19.80
2018-09-05T21:36:08.295Z,19.90
2018-09-05T21:41:11.488Z,19.60
2018-09-05T21:46:14.663Z,19.50
2018-09-05T21:51:17.886Z,19.40
2018-09-05T21:56:21.144Z,19.30
2018-09-05T22:01:24.391Z,19.30
2018-09-05T22:06:27.599Z,19.30
2018-09-05T22:11:30.887Z,19.10
2018-09-05T22:16:34.067Z,18.90
2018-09-05T22:21:37.312Z,18.80
2018-09-05T22:26:40.866Z,18.60
2018-09-05T22:31:44.107Z,18.50
2018-09-05T22:36:47.310Z,18.30
2018-09-05T22:41:50.537Z,18.30
2018-09-05T22:47:05.147Z,18.10
2018-09-05T22:53:24.209Z,18.00
2018-09-05T22:58:52.372Z,17.90
2018-09-05T23:06:18.920Z,17.80
2018-09-05T23:11:39.967Z,17.70
2018-09-05T23:19:27.058Z,17.70
2018-09-05T23:24:30.267Z,17.60
2018-09-05T23:29:33.460Z,17.40
2018-09-05T23:34:36.639Z,17.20
2018-09-05T23:39:39.852Z,17.20
2018-09-05T23:44:43.029Z,17.40
2018-09-05T23:49:46.339Z,17.20
2018-09-05T23:54:49.604Z,17.20
2018-09-05T23:59:52.824Z,17.10
